sensor_id;sensor_type;location;lat;lon;timestamp;pressure;altitude;pressure_sealevel;temperature;humidity
12215;BME280;6170;42.206;24.142;2023-08-07T00:01:04;97961.44;;;21.94;60.04
12215;BME280;6170;42.206;24.142;2023-08-07T00:03:31;97960.28;;;22.14;59.93
12215;BME280;6170;42.206;24.142;2023-08-07T00:05:58;97958.59;;;22.00;59.87
12215;BME280;6170;42.206;24.142;2023-08-07T00:08:25;97973.59;;;22.02;60.01
12215;BME280;6170;42.206;24.142;2023-08-07T00:11:04;97972.41;;;22.08;59.68
12215;BME280;6170;42.206;24.142;2023-08-07T00:13:31;97980.81;;;22.12;59.69
12215;BME280;6170;42.206;24.142;2023-08-07T00:15:58;97983.69;;;22.20;59.69
12215;BME280;6170;42.206;24.142;2023-08-07T00:18:27;97986.84;;;21.90;59.90
12215;BME280;6170;42.206;24.142;2023-08-07T00:20:54;97977.63;;;21.86;60.35
12215;BME280;6170;42.206;24.142;2023-08-07T00:23:21;97997.31;;;22.20;60.40
12215;BME280;6170;42.206;24.142;2023-08-07T00:25:49;98001.56;;;21.89;60.84
12215;BME280;6170;42.206;24.142;2023-08-07T00:28:17;98004.22;;;21.75;60.52
12215;BME280;6170;42.206;24.142;2023-08-07T00:30:45;98006.34;;;21.60;61.03
12215;BME280;6170;42.206;24.142;2023-08-07T00:33:12;98019.50;;;21.52;61.36
12215;BME280;6170;42.206;24.142;2023-08-07T00:35:39;97987.88;;;21.51;60.97
12215;BME280;6170;42.206;24.142;2023-08-07T00:38:06;98015.09;;;21.57;61.35
12215;BME280;6170;42.206;24.142;2023-08-07T00:40:37;98021.56;;;21.61;61.21
12215;BME280;6170;42.206;24.142;2023-08-07T00:43:05;98014.97;;;21.43;61.43
12215;BME280;6170;42.206;24.142;2023-08-07T00:45:36;98010.94;;;21.40;61.92
12215;BME280;6170;42.206;24.142;2023-08-07T00:48:04;97998.44;;;21.11;62.38
12215;BME280;6170;42.206;24.142;2023-08-07T00:50:32;98025.06;;;21.19;62.76
12215;BME280;6170;42.206;24.142;2023-08-07T00:53:00;98042.00;;;21.39;62.92
12215;BME280;6170;42.206;24.142;2023-08-07T00:55:28;98031.41;;;21.09;63.23
12215;BME280;6170;42.206;24.142;2023-08-07T00:57:56;98020.84;;;21.02;63.34
12215;BME280;6170;42.206;24.142;2023-08-07T01:00:25;98030.47;;;20.95;63.43
12215;BME280;6170;42.206;24.142;2023-08-07T01:02:54;98023.22;;;21.14;63.29
12215;BME280;6170;42.206;24.142;2023-08-07T01:05:24;98111.16;;;21.72;62.91
12215;BME280;6170;42.206;24.142;2023-08-07T01:07:53;98009.00;;;21.17;62.52
12215;BME280;6170;42.206;24.142;2023-08-07T01:10:27;98039.75;;;21.23;62.65
12215;BME280;6170;42.206;24.142;2023-08-07T01:13:07;98040.41;;;21.10;63.10
12215;BME280;6170;42.206;24.142;2023-08-07T01:15:37;98036.44;;;20.97;62.98
12215;BME280;6170;42.206;24.142;2023-08-07T01:18:07;98048.00;;;21.13;63.14
12215;BME280;6170;42.206;24.142;2023-08-07T01:20:34;98057.88;;;21.03;63.00
12215;BME280;6170;42.206;24.142;2023-08-07T01:23:03;98052.47;;;20.98;63.45
12215;BME280;6170;42.206;24.142;2023-08-07T01:25:30;98060.13;;;21.25;62.80
12215;BME280;6170;42.206;24.142;2023-08-07T01:28:03;98066.53;;;21.11;63.25
12215;BME280;6170;42.206;24.142;2023-08-07T01:30:36;98055.97;;;21.04;63.18
12215;BME280;6170;42.206;24.142;2023-08-07T01:33:09;98063.31;;;21.03;63.33
12215;BME280;6170;42.206;24.142;2023-08-07T01:35:40;98138.97;;;21.17;64.39
12215;BME280;6170;42.206;24.142;2023-08-07T01:38:09;98065.50;;;20.73;64.30
12215;BME280;6170;42.206;24.142;2023-08-07T01:40:39;98082.38;;;21.03;63.83
12215;BME280;6170;42.206;24.142;2023-08-07T01:43:06;98082.97;;;21.00;64.08
12215;BME280;6170;42.206;24.142;2023-08-07T01:45:33;98071.94;;;20.87;64.08
12215;BME280;6170;42.206;24.142;2023-08-07T01:48:01;98080.75;;;21.02;63.94
12215;BME280;6170;42.206;24.142;2023-08-07T01:50:29;98070.31;;;20.86;64.09
12215;BME280;6170;42.206;24.142;2023-08-07T01:52:56;98083.50;;;20.69;65.01
12215;BME280;6170;42.206;24.142;2023-08-07T01:55:25;98086.00;;;20.65;65.04
12215;BME280;6170;42.206;24.142;2023-08-07T01:57:52;98091.09;;;20.72;65.09
12215;BME280;6170;42.206;24.142;2023-08-07T02:00:20;98087.19;;;20.88;64.43
12215;BME280;6170;42.206;24.142;2023-08-07T02:02:47;98081.25;;;20.76;64.79
12215;BME280;6170;42.206;24.142;2023-08-07T02:05:15;98110.38;;;20.80;64.48
12215;BME280;6170;42.206;24.142;2023-08-07T02:07:42;98108.38;;;20.57;66.13
12215;BME280;6170;42.206;24.142;2023-08-07T02:10:10;98098.59;;;20.56;65.52
12215;BME280;6170;42.206;24.142;2023-08-07T02:12:38;98128.34;;;20.81;65.50
12215;BME280;6170;42.206;24.142;2023-08-07T02:15:06;98090.72;;;20.49;65.77
12215;BME280;6170;42.206;24.142;2023-08-07T02:17:35;98094.28;;;20.45;65.92
12215;BME280;6170;42.206;24.142;2023-08-07T02:20:05;98100.47;;;20.60;65.69
12215;BME280;6170;42.206;24.142;2023-08-07T02:22:32;98115.09;;;20.70;66.00
12215;BME280;6170;42.206;24.142;2023-08-07T02:24:59;98119.47;;;20.66;65.51
12215;BME280;6170;42.206;24.142;2023-08-07T02:27:26;98113.88;;;20.52;66.23
12215;BME280;6170;42.206;24.142;2023-08-07T02:29:55;98119.88;;;20.49;66.07
12215;BME280;6170;42.206;24.142;2023-08-07T02:32:22;98128.25;;;20.57;65.82
12215;BME280;6170;42.206;24.142;2023-08-07T02:34:49;98183.13;;;20.75;66.15
12215;BME280;6170;42.206;24.142;2023-08-07T02:37:17;98125.00;;;20.50;65.77
12215;BME280;6170;42.206;24.142;2023-08-07T02:39:44;98127.88;;;20.30;66.33
12215;BME280;6170;42.206;24.142;2023-08-07T02:42:11;98130.50;;;20.40;66.11
12215;BME280;6170;42.206;24.142;2023-08-07T02:44:39;98108.22;;;20.38;65.99
12215;BME280;6170;42.206;24.142;2023-08-07T02:47:07;98143.03;;;20.41;66.09
12215;BME280;6170;42.206;24.142;2023-08-07T02:49:34;98134.16;;;20.15;66.29
12215;BME280;6170;42.206;24.142;2023-08-07T02:52:02;98121.13;;;20.12;66.08
12215;BME280;6170;42.206;24.142;2023-08-07T02:54:29;98150.69;;;20.29;66.67
12215;BME280;6170;42.206;24.142;2023-08-07T02:56:57;98150.47;;;20.21;66.56
12215;BME280;6170;42.206;24.142;2023-08-07T02:59:24;98157.47;;;20.42;66.29
12215;BME280;6170;42.206;24.142;2023-08-07T03:01:51;98165.34;;;20.43;66.48
12215;BME280;6170;42.206;24.142;2023-08-07T03:04:21;98165.94;;;20.35;66.45
12215;BME280;6170;42.206;24.142;2023-08-07T03:06:48;98162.94;;;20.32;66.64
12215;BME280;6170;42.206;24.142;2023-08-07T03:09:15;98167.88;;;20.30;66.80
12215;BME280;6170;42.206;24.142;2023-08-07T03:11:43;98164.94;;;20.06;67.28
12215;BME280;6170;42.206;24.142;2023-08-07T03:14:10;98169.28;;;20.12;66.40
12215;BME280;6170;42.206;24.142;2023-08-07T03:16:37;98178.50;;;20.16;66.53
12215;BME280;6170;42.206;24.142;2023-08-07T03:19:04;98199.78;;;19.99;66.87
12215;BME280;6170;42.206;24.142;2023-08-07T03:21:33;98190.81;;;19.93;67.21
12215;BME280;6170;42.206;24.142;2023-08-07T03:24:00;98135.78;;;19.17;68.04
12215;BME280;6170;42.206;24.142;2023-08-07T03:26:27;98205.31;;;19.73;67.66
12215;BME280;6170;42.206;24.142;2023-08-07T03:28:54;98195.78;;;19.61;67.57
12215;BME280;6170;42.206;24.142;2023-08-07T03:31:21;98203.09;;;19.91;67.77
12215;BME280;6170;42.206;24.142;2023-08-07T03:33:49;98209.59;;;19.90;67.94
12215;BME280;6170;42.206;24.142;2023-08-07T03:36:16;98203.59;;;20.03;67.47
12215;BME280;6170;42.206;24.142;2023-08-07T03:38:44;98202.25;;;19.95;67.76
12215;BME280;6170;42.206;24.142;2023-08-07T03:41:12;98201.66;;;20.13;67.30
12215;BME280;6170;42.206;24.142;2023-08-07T03:43:39;98198.38;;;20.16;67.11
12215;BME280;6170;42.206;24.142;2023-08-07T03:46:06;98209.00;;;20.13;67.23
12215;BME280;6170;42.206;24.142;2023-08-07T03:48:33;98207.88;;;20.14;67.18
12215;BME280;6170;42.206;24.142;2023-08-07T03:51:04;98210.91;;;20.12;67.50
12215;BME280;6170;42.206;24.142;2023-08-07T03:53:31;98214.78;;;19.91;68.34
12215;BME280;6170;42.206;24.142;2023-08-07T03:56:00;98208.78;;;19.94;67.53
12215;BME280;6170;42.206;24.142;2023-08-07T03:58:27;98219.34;;;20.06;67.65
12215;BME280;6170;42.206;24.142;2023-08-07T04:00:54;98224.25;;;20.04;67.69
12215;BME280;6170;42.206;24.142;2023-08-07T04:03:22;98224.50;;;20.12;67.53
12215;BME280;6170;42.206;24.142;2023-08-07T04:05:52;98222.84;;;20.16;67.50
12215;BME280;6170;42.206;24.142;2023-08-07T04:08:20;98228.53;;;20.30;67.15
12215;BME280;6170;42.206;24.142;2023-08-07T04:10:59;98224.97;;;20.40;67.24
12215;BME280;6170;42.206;24.142;2023-08-07T04:13:27;98212.94;;;20.46;66.74
12215;BME280;6170;42.206;24.142;2023-08-07T04:15:55;98233.59;;;20.52;66.10
12215;BME280;6170;42.206;24.142;2023-08-07T04:18:22;98221.25;;;20.75;65.98
12215;BME280;6170;42.206;24.142;2023-08-07T04:20:49;98233.72;;;20.81;65.99
12215;BME280;6170;42.206;24.142;2023-08-07T04:23:18;98233.25;;;21.13;64.73
12215;BME280;6170;42.206;24.142;2023-08-07T04:25:45;98238.16;;;21.49;64.31
12215;BME280;6170;42.206;24.142;2023-08-07T04:28:15;98235.00;;;21.95;63.04
12215;BME280;6170;42.206;24.142;2023-08-07T04:30:43;98222.34;;;22.04;62.77
12215;BME280;6170;42.206;24.142;2023-08-07T04:33:10;98227.09;;;22.17;62.07
12215;BME280;6170;42.206;24.142;2023-08-07T04:35:38;98235.94;;;22.33;61.43
12215;BME280;6170;42.206;24.142;2023-08-07T04:38:05;98237.63;;;22.71;60.74
12215;BME280;6170;42.206;24.142;2023-08-07T04:40:32;98235.97;;;22.94;60.76
12215;BME280;6170;42.206;24.142;2023-08-07T04:43:00;98231.59;;;22.74;61.05
12215;BME280;6170;42.206;24.142;2023-08-07T04:45:29;98235.66;;;22.96;60.11
12215;BME280;6170;42.206;24.142;2023-08-07T04:47:56;98217.28;;;23.52;58.91
12215;BME280;6170;42.206;24.142;2023-08-07T04:50:23;98226.81;;;23.55;58.42
12215;BME280;6170;42.206;24.142;2023-08-07T04:52:50;98221.25;;;23.41;58.76
12215;BME280;6170;42.206;24.142;2023-08-07T04:55:17;98227.25;;;23.62;59.19
12215;BME280;6170;42.206;24.142;2023-08-07T04:57:45;98220.34;;;23.64;58.02
12215;BME280;6170;42.206;24.142;2023-08-07T05:00:14;98216.84;;;23.91;57.84
12215;BME280;6170;42.206;24.142;2023-08-07T05:02:43;98225.19;;;24.68;57.32
12215;BME280;6170;42.206;24.142;2023-08-07T05:05:10;98221.19;;;24.74;55.91
12215;BME280;6170;42.206;24.142;2023-08-07T05:07:37;98216.22;;;24.76;56.18
12215;BME280;6170;42.206;24.142;2023-08-07T05:10:05;98228.16;;;25.30;55.43
12215;BME280;6170;42.206;24.142;2023-08-07T05:12:33;98180.38;;;25.00;54.14
12215;BME280;6170;42.206;24.142;2023-08-07T05:15:00;98271.75;;;25.76;53.51
12215;BME280;6170;42.206;24.142;2023-08-07T05:17:27;98223.59;;;25.25;54.58
12215;BME280;6170;42.206;24.142;2023-08-07T05:19:56;98219.13;;;25.29;53.56
12215;BME280;6170;42.206;24.142;2023-08-07T05:22:23;98219.06;;;25.43;53.24
12215;BME280;6170;42.206;24.142;2023-08-07T05:24:50;98216.28;;;25.87;52.44
12215;BME280;6170;42.206;24.142;2023-08-07T05:27:17;98216.47;;;25.91;52.61
12215;BME280;6170;42.206;24.142;2023-08-07T05:29:45;98231.72;;;26.06;52.38
12215;BME280;6170;42.206;24.142;2023-08-07T05:32:13;98273.41;;;26.16;52.75
12215;BME280;6170;42.206;24.142;2023-08-07T05:34:40;98219.88;;;25.97;53.49
12215;BME280;6170;42.206;24.142;2023-08-07T05:37:09;98214.75;;;25.73;53.19
12215;BME280;6170;42.206;24.142;2023-08-07T05:39:36;98198.41;;;25.68;52.69
12215;BME280;6170;42.206;24.142;2023-08-07T05:42:04;98216.50;;;25.69;53.88
12215;BME280;6170;42.206;24.142;2023-08-07T05:44:33;98211.00;;;25.69;53.25
12215;BME280;6170;42.206;24.142;2023-08-07T05:47:00;98208.81;;;25.79;53.91
12215;BME280;6170;42.206;24.142;2023-08-07T05:49:27;98205.06;;;26.06;53.47
12215;BME280;6170;42.206;24.142;2023-08-07T05:51:55;98206.00;;;26.32;53.06
12215;BME280;6170;42.206;24.142;2023-08-07T05:54:23;98205.50;;;26.30;52.37
12215;BME280;6170;42.206;24.142;2023-08-07T05:56:51;98194.22;;;26.41;52.35
12215;BME280;6170;42.206;24.142;2023-08-07T05:59:18;98207.03;;;26.54;52.55
12215;BME280;6170;42.206;24.142;2023-08-07T06:01:45;98202.16;;;26.42;52.02
12215;BME280;6170;42.206;24.142;2023-08-07T06:04:12;98201.47;;;26.36;51.93
12215;BME280;6170;42.206;24.142;2023-08-07T06:06:39;98204.78;;;26.73;51.75
12215;BME280;6170;42.206;24.142;2023-08-07T06:09:09;98219.72;;;27.15;50.93
12215;BME280;6170;42.206;24.142;2023-08-07T06:11:38;98214.34;;;27.44;50.87
12215;BME280;6170;42.206;24.142;2023-08-07T06:14:05;98210.16;;;27.30;48.92
12215;BME280;6170;42.206;24.142;2023-08-07T06:16:32;98208.63;;;27.84;50.00
12215;BME280;6170;42.206;24.142;2023-08-07T06:19:00;98204.16;;;27.36;51.11
12215;BME280;6170;42.206;24.142;2023-08-07T06:21:27;98218.78;;;28.00;49.33
12215;BME280;6170;42.206;24.142;2023-08-07T06:23:54;98222.19;;;27.89;49.66
12215;BME280;6170;42.206;24.142;2023-08-07T06:26:22;98264.84;;;28.67;49.47
12215;BME280;6170;42.206;24.142;2023-08-07T06:28:51;98222.47;;;28.13;46.65
12215;BME280;6170;42.206;24.142;2023-08-07T06:31:18;98225.28;;;28.34;47.52
12215;BME280;6170;42.206;24.142;2023-08-07T06:33:45;98202.94;;;28.35;47.45
12215;BME280;6170;42.206;24.142;2023-08-07T06:36:13;98221.84;;;28.95;47.91
12215;BME280;6170;42.206;24.142;2023-08-07T06:38:40;98162.66;;;28.22;47.59
12215;BME280;6170;42.206;24.142;2023-08-07T06:41:07;98275.19;;;28.79;47.93
12215;BME280;6170;42.206;24.142;2023-08-07T06:43:34;98216.72;;;29.27;46.70
12215;BME280;6170;42.206;24.142;2023-08-07T06:46:03;98217.97;;;28.76;48.30
12215;BME280;6170;42.206;24.142;2023-08-07T06:48:30;98226.72;;;29.40;47.38
12215;BME280;6170;42.206;24.142;2023-08-07T06:50:57;98215.13;;;29.47;46.02
12215;BME280;6170;42.206;24.142;2023-08-07T06:53:24;98211.41;;;29.22;45.62
12215;BME280;6170;42.206;24.142;2023-08-07T06:55:52;98209.28;;;29.07;46.84
12215;BME280;6170;42.206;24.142;2023-08-07T06:58:19;98221.53;;;29.18;46.89
12215;BME280;6170;42.206;24.142;2023-08-07T07:00:46;98224.78;;;29.73;47.04
12215;BME280;6170;42.206;24.142;2023-08-07T07:03:15;98271.53;;;30.36;46.72
12215;BME280;6170;42.206;24.142;2023-08-07T07:05:42;98219.75;;;30.45;45.23
12215;BME280;6170;42.206;24.142;2023-08-07T07:08:09;98221.66;;;30.20;45.49
12215;BME280;6170;42.206;24.142;2023-08-07T07:10:36;98214.88;;;30.17;45.04
12215;BME280;6170;42.206;24.142;2023-08-07T07:13:03;98224.41;;;30.32;44.32
12215;BME280;6170;42.206;24.142;2023-08-07T07:15:31;98209.06;;;29.98;45.80
12215;BME280;6170;42.206;24.142;2023-08-07T07:17:58;98265.22;;;29.90;45.50
12215;BME280;6170;42.206;24.142;2023-08-07T07:20:27;98218.66;;;30.13;43.85
12215;BME280;6170;42.206;24.142;2023-08-07T07:22:54;98218.22;;;30.47;43.94
12215;BME280;6170;42.206;24.142;2023-08-07T07:25:21;98185.03;;;30.35;43.75
12215;BME280;6170;42.206;24.142;2023-08-07T07:27:48;98205.25;;;31.00;42.80
12215;BME280;6170;42.206;24.142;2023-08-07T07:30:16;98266.88;;;31.92;43.49
12215;BME280;6170;42.206;24.142;2023-08-07T07:32:43;98216.91;;;31.89;42.65
12215;BME280;6170;42.206;24.142;2023-08-07T07:35:10;98270.16;;;32.26;42.39
12215;BME280;6170;42.206;24.142;2023-08-07T07:37:39;98212.75;;;32.11;43.11
12215;BME280;6170;42.206;24.142;2023-08-07T07:40:07;98211.06;;;31.23;43.01
12215;BME280;6170;42.206;24.142;2023-08-07T07:42:34;98217.91;;;31.13;43.59
12215;BME280;6170;42.206;24.142;2023-08-07T07:45:02;98223.75;;;31.63;42.45
12215;BME280;6170;42.206;24.142;2023-08-07T07:47:29;98224.44;;;32.04;42.08
12215;BME280;6170;42.206;24.142;2023-08-07T07:50:05;98221.72;;;31.76;42.44
12215;BME280;6170;42.206;24.142;2023-08-07T07:52:33;98219.34;;;31.35;41.81
12215;BME280;6170;42.206;24.142;2023-08-07T07:55:02;98215.34;;;32.19;42.38
12215;BME280;6170;42.206;24.142;2023-08-07T07:57:29;98223.13;;;31.42;41.94
12215;BME280;6170;42.206;24.142;2023-08-07T07:59:56;98215.97;;;31.69;41.84
12215;BME280;6170;42.206;24.142;2023-08-07T08:02:23;98268.63;;;32.13;41.36
12215;BME280;6170;42.206;24.142;2023-08-07T08:04:51;98218.50;;;31.90;40.98
12215;BME280;6170;42.206;24.142;2023-08-07T08:07:18;98212.50;;;31.88;42.02
12215;BME280;6170;42.206;24.142;2023-08-07T08:09:45;98209.78;;;32.66;41.94
12215;BME280;6170;42.206;24.142;2023-08-07T08:12:14;98248.41;;;32.59;40.65
12215;BME280;6170;42.206;24.142;2023-08-07T08:14:41;98199.38;;;32.63;41.30
12215;BME280;6170;42.206;24.142;2023-08-07T08:17:08;98193.91;;;32.67;41.31
12215;BME280;6170;42.206;24.142;2023-08-07T08:19:35;98194.38;;;32.69;39.71
12215;BME280;6170;42.206;24.142;2023-08-07T08:22:03;98198.41;;;32.40;40.64
12215;BME280;6170;42.206;24.142;2023-08-07T08:24:30;98196.63;;;32.32;40.22
12215;BME280;6170;42.206;24.142;2023-08-07T08:26:58;98201.97;;;32.56;41.06
12215;BME280;6170;42.206;24.142;2023-08-07T08:29:27;98182.88;;;32.20;40.76
12215;BME280;6170;42.206;24.142;2023-08-07T08:31:54;98187.34;;;32.24;39.01
12215;BME280;6170;42.206;24.142;2023-08-07T08:34:22;98235.50;;;33.17;39.77
12215;BME280;6170;42.206;24.142;2023-08-07T08:36:49;98178.44;;;32.50;41.28
12215;BME280;6170;42.206;24.142;2023-08-07T08:39:16;98173.31;;;32.83;40.75
12215;BME280;6170;42.206;24.142;2023-08-07T08:41:46;98173.28;;;33.03;41.12
12215;BME280;6170;42.206;24.142;2023-08-07T08:44:14;98174.78;;;32.96;40.03
12215;BME280;6170;42.206;24.142;2023-08-07T08:46:45;98162.19;;;32.83;39.65
12215;BME280;6170;42.206;24.142;2023-08-07T08:49:18;98155.97;;;32.71;38.94
12215;BME280;6170;42.206;24.142;2023-08-07T08:51:47;98163.38;;;32.82;40.19
12215;BME280;6170;42.206;24.142;2023-08-07T08:54:15;98162.41;;;32.75;38.18
12215;BME280;6170;42.206;24.142;2023-08-07T08:56:42;98134.00;;;33.01;39.11
12215;BME280;6170;42.206;24.142;2023-08-07T08:59:10;98153.66;;;33.11;38.48
12215;BME280;6170;42.206;24.142;2023-08-07T09:01:37;98153.38;;;33.16;38.92
12215;BME280;6170;42.206;24.142;2023-08-07T09:04:07;98144.75;;;32.32;38.47
12215;BME280;6170;42.206;24.142;2023-08-07T09:06:36;98144.41;;;32.34;40.24
12215;BME280;6170;42.206;24.142;2023-08-07T09:09:03;98156.72;;;33.45;38.43
12215;BME280;6170;42.206;24.142;2023-08-07T09:11:32;98138.16;;;32.21;40.23
12215;BME280;6170;42.206;24.142;2023-08-07T09:14:02;98150.25;;;32.13;37.79
12215;BME280;6170;42.206;24.142;2023-08-07T09:16:30;98140.75;;;32.30;38.43
12215;BME280;6170;42.206;24.142;2023-08-07T09:18:58;98120.06;;;32.43;37.55
12215;BME280;6170;42.206;24.142;2023-08-07T09:21:27;98129.66;;;32.30;38.65
12215;BME280;6170;42.206;24.142;2023-08-07T09:23:54;98135.44;;;32.40;41.76
12215;BME280;6170;42.206;24.142;2023-08-07T09:26:22;98125.06;;;33.11;39.83
12215;BME280;6170;42.206;24.142;2023-08-07T09:28:52;98093.06;;;32.75;39.86
12215;BME280;6170;42.206;24.142;2023-08-07T09:31:20;98099.97;;;33.04;38.66
12215;BME280;6170;42.206;24.142;2023-08-07T09:33:47;98111.75;;;33.16;39.14
12215;BME280;6170;42.206;24.142;2023-08-07T09:36:15;98100.19;;;33.56;38.04
12215;BME280;6170;42.206;24.142;2023-08-07T09:38:49;98110.31;;;33.45;40.45
12215;BME280;6170;42.206;24.142;2023-08-07T09:41:18;98110.47;;;33.75;40.34
12215;BME280;6170;42.206;24.142;2023-08-07T09:43:45;98103.31;;;33.74;38.08
12215;BME280;6170;42.206;24.142;2023-08-07T09:46:13;98099.59;;;31.38;38.00
12215;BME280;6170;42.206;24.142;2023-08-07T09:48:41;98075.50;;;32.36;38.26
12215;BME280;6170;42.206;24.142;2023-08-07T09:51:09;98106.41;;;32.69;39.64
12215;BME280;6170;42.206;24.142;2023-08-07T09:53:36;98120.94;;;33.01;39.75
12215;BME280;6170;42.206;24.142;2023-08-07T09:56:06;98072.16;;;33.19;39.00
12215;BME280;6170;42.206;24.142;2023-08-07T09:58:33;98096.78;;;33.86;38.58
12215;BME280;6170;42.206;24.142;2023-08-07T10:01:03;98096.13;;;34.18;38.64
12215;BME280;6170;42.206;24.142;2023-08-07T10:03:31;98100.91;;;33.72;38.55
12215;BME280;6170;42.206;24.142;2023-08-07T10:05:59;98095.88;;;34.31;37.80
12215;BME280;6170;42.206;24.142;2023-08-07T10:08:26;98090.25;;;34.01;36.92
12215;BME280;6170;42.206;24.142;2023-08-07T10:10:54;98080.41;;;33.80;34.27
12215;BME280;6170;42.206;24.142;2023-08-07T10:13:23;98078.09;;;32.79;36.03
12215;BME280;6170;42.206;24.142;2023-08-07T10:15:51;98074.91;;;33.84;38.84
12215;BME280;6170;42.206;24.142;2023-08-07T10:18:18;98068.97;;;33.63;38.08
12215;BME280;6170;42.206;24.142;2023-08-07T10:20:47;98073.84;;;33.92;38.22
12215;BME280;6170;42.206;24.142;2023-08-07T10:23:15;98083.09;;;34.26;35.35
12215;BME280;6170;42.206;24.142;2023-08-07T10:25:44;98065.53;;;34.18;36.99
12215;BME280;6170;42.206;24.142;2023-08-07T10:28:14;98069.22;;;33.77;35.94
12215;BME280;6170;42.206;24.142;2023-08-07T10:30:45;98061.84;;;32.81;37.56
12215;BME280;6170;42.206;24.142;2023-08-07T10:33:14;98035.84;;;32.51;36.84
12215;BME280;6170;42.206;24.142;2023-08-07T10:35:45;98067.91;;;32.48;34.85
12215;BME280;6170;42.206;24.142;2023-08-07T10:38:13;98053.00;;;32.95;36.82
12215;BME280;6170;42.206;24.142;2023-08-07T10:41:01;98041.63;;;33.00;38.03
12215;BME280;6170;42.206;24.142;2023-08-07T10:43:29;98054.84;;;33.71;38.16
12215;BME280;6170;42.206;24.142;2023-08-07T10:46:05;98054.09;;;34.01;38.26
12215;BME280;6170;42.206;24.142;2023-08-07T10:48:38;98039.00;;;33.98;38.56
12215;BME280;6170;42.206;24.142;2023-08-07T10:51:06;98010.97;;;33.84;37.65
12215;BME280;6170;42.206;24.142;2023-08-07T10:53:35;98027.53;;;33.77;35.88
12215;BME280;6170;42.206;24.142;2023-08-07T10:56:03;98035.19;;;34.36;38.90
12215;BME280;6170;42.206;24.142;2023-08-07T10:58:34;98059.91;;;34.41;37.95
12215;BME280;6170;42.206;24.142;2023-08-07T11:01:26;98032.84;;;33.86;34.30
12215;BME280;6170;42.206;24.142;2023-08-07T11:03:54;98084.97;;;33.69;34.27
12215;BME280;6170;42.206;24.142;2023-08-07T11:06:23;98033.75;;;33.93;37.21
12215;BME280;6170;42.206;24.142;2023-08-07T11:08:52;98032.91;;;33.89;34.87
12215;BME280;6170;42.206;24.142;2023-08-07T11:11:20;98025.19;;;33.79;36.67
12215;BME280;6170;42.206;24.142;2023-08-07T11:13:47;98023.72;;;34.41;37.65
12215;BME280;6170;42.206;24.142;2023-08-07T11:16:14;98015.44;;;33.43;35.35
12215;BME280;6170;42.206;24.142;2023-08-07T11:18:43;98009.50;;;32.80;38.42
12215;BME280;6170;42.206;24.142;2023-08-07T11:21:11;97996.38;;;33.41;37.18
12215;BME280;6170;42.206;24.142;2023-08-07T11:23:38;98004.44;;;33.73;37.00
12215;BME280;6170;42.206;24.142;2023-08-07T11:26:06;98004.97;;;33.82;34.81
12215;BME280;6170;42.206;24.142;2023-08-07T11:28:34;98005.66;;;32.65;35.32
12215;BME280;6170;42.206;24.142;2023-08-07T11:31:01;97996.97;;;31.62;37.67
12215;BME280;6170;42.206;24.142;2023-08-07T11:33:29;98003.16;;;32.06;37.82
12215;BME280;6170;42.206;24.142;2023-08-07T11:35:58;97990.75;;;32.35;35.96
12215;BME280;6170;42.206;24.142;2023-08-07T11:38:30;97995.28;;;32.08;37.79
12215;BME280;6170;42.206;24.142;2023-08-07T11:40:59;97993.06;;;33.32;40.01
12215;BME280;6170;42.206;24.142;2023-08-07T11:43:30;97988.66;;;33.54;36.50
12215;BME280;6170;42.206;24.142;2023-08-07T11:45:58;97989.22;;;34.16;37.80
12215;BME280;6170;42.206;24.142;2023-08-07T11:48:26;97996.59;;;34.05;37.65
12215;BME280;6170;42.206;24.142;2023-08-07T11:50:54;97998.22;;;34.36;35.68
12215;BME280;6170;42.206;24.142;2023-08-07T11:53:24;97980.44;;;34.44;35.19
12215;BME280;6170;42.206;24.142;2023-08-07T11:55:52;97998.69;;;34.41;35.24
12215;BME280;6170;42.206;24.142;2023-08-07T11:58:20;97981.00;;;34.56;36.22
12215;BME280;6170;42.206;24.142;2023-08-07T12:00:48;97977.84;;;33.98;34.44
12215;BME280;6170;42.206;24.142;2023-08-07T12:03:25;97976.78;;;34.36;37.39
12215;BME280;6170;42.206;24.142;2023-08-07T12:05:54;97977.91;;;34.32;34.00
12215;BME280;6170;42.206;24.142;2023-08-07T12:08:23;97970.50;;;33.87;32.75
12215;BME280;6170;42.206;24.142;2023-08-07T12:13:23;97964.03;;;34.05;35.01
12215;BME280;6170;42.206;24.142;2023-08-07T12:15:51;97963.63;;;33.77;36.32
12215;BME280;6170;42.206;24.142;2023-08-07T12:18:20;97966.53;;;34.44;34.69
12215;BME280;6170;42.206;24.142;2023-08-07T12:20:49;97956.00;;;34.97;35.10
12215;BME280;6170;42.206;24.142;2023-08-07T12:23:17;97932.72;;;34.75;33.87
12215;BME280;6170;42.206;24.142;2023-08-07T12:25:46;97939.19;;;34.83;35.23
12215;BME280;6170;42.206;24.142;2023-08-07T12:28:14;97938.28;;;34.38;33.76
12215;BME280;6170;42.206;24.142;2023-08-07T12:30:44;97942.34;;;34.81;34.50
12215;BME280;6170;42.206;24.142;2023-08-07T12:33:12;98000.63;;;33.81;34.66
12215;BME280;6170;42.206;24.142;2023-08-07T12:35:39;97914.69;;;32.97;35.97
12215;BME280;6170;42.206;24.142;2023-08-07T12:38:07;97942.81;;;33.41;33.61
12215;BME280;6170;42.206;24.142;2023-08-07T12:40:34;97946.03;;;33.69;33.69
12215;BME280;6170;42.206;24.142;2023-08-07T12:43:04;97939.56;;;33.62;36.41
12215;BME280;6170;42.206;24.142;2023-08-07T12:45:31;97950.44;;;34.26;34.83
12215;BME280;6170;42.206;24.142;2023-08-07T12:47:59;97953.81;;;34.43;33.42
12215;BME280;6170;42.206;24.142;2023-08-07T12:50:26;97937.53;;;33.32;34.03
12215;BME280;6170;42.206;24.142;2023-08-07T12:52:53;97951.72;;;33.76;33.87
12215;BME280;6170;42.206;24.142;2023-08-07T12:55:20;97946.50;;;33.71;33.24
12215;BME280;6170;42.206;24.142;2023-08-07T12:57:47;98007.34;;;34.06;35.42
12215;BME280;6170;42.206;24.142;2023-08-07T13:00:16;97955.75;;;33.82;34.01
12215;BME280;6170;42.206;24.142;2023-08-07T13:02:46;97953.66;;;33.50;34.65
12215;BME280;6170;42.206;24.142;2023-08-07T13:05:14;97949.53;;;32.94;35.51
12215;BME280;6170;42.206;24.142;2023-08-07T13:07:42;97937.88;;;32.85;35.35